logo
Search for airport 
image banner adimage banner adimage banner ad
image banner ad

CDL6 - Doctor's Lake West

Located in , Canada

ICAO - , IATA -

Data provided by Airmate  

General information

Coordinates: N43°53'4" W66°6'9"
Elevation is 10 feet MSL.
Magnetic variation is -17.0108° East
View others Airports in Nova Scotia

Operational data

Special qualification required
Current time UTC:
Current local time:
Weather at : CYQI - Yarmouth ( 6 km )
METAR: CYQI 230500Z 34006KT 15SM SKC 02/01 A3016 RMK SLP216
TAF: TAF CYQI 222341Z 2300/2312 28010KT P6SM FEW250 BECMG 2304/2306 VRB03KT FM230900 09005KT P6SM SKC RMK NXT FCST BY 230600Z
View NOTAMs / SUP AIP / TFR affecting this airport [VIEW]
Communications frequencies: [VIEW]

Runways:

RWY identifierQFULength (ft)Width (ft)SurfaceLDA (ft)
W00WATER

Airport contact information

Address: Canada

Satellite view of CDL6